CA-0392 weather

CLOSED Dunphy Airport
Upper Blackville, New Brunswick, Canada

Public forecast

Using degrees Celsius for public forecast. Weather courtesy of forecast.io.

Closest aviation weather report (METAR) to Dunphy Airport

Closest report is CFB Gagetown Heliport, 53.0 nm (98.1 km) SSW. Retrieved 2020/07/05 00:00 UTC (34 minutes ago):

CYCX 050000Z AUTO 18008KT 9SM CLR 20/12 A2989 RMK SLP122

Closest aviation forecast (TAF) to Dunphy Airport

Forecast is more than 12 hours old.

Closest forecast is CFB Gagetown Heliport, 53.0 nm (98.1 km) SSW. Retrieved 2020/05/23 18:33 UTC (1 month ago):

TAF TAF CYCX 231730Z 2318/2406 FCST CNCLD DUE END OF FLYING PROGRAM RMK NO FCST ISSUED UFN